Gaschem Jade — ELSU9 — position and weather

sailwx.info

Track history (hours):
 
Tides and Currents Weather Stations Pressure Air Temp Water Temp Dewpoint Dewpoint Depression Visibility Wind Speed Wind Dir Waves Ship Positions

Gaschem Jade

Last reported at 2015-Jun-29 20:16 UTC. Time now 2015-Jun-30 08:18 UTC.
Position N 37°32' E 010°20'.

Length 113.2 m; beam 15.9 m; draft 6.1 m.

Type: Ship. MMSI: 636090168.

Date/timePositionNaut miles runAvg speedWind from/ knotsBaromVisibWave heightAir tempDewpointWater temp
2015-Jun-29 20:16N 37°32' E 010°20'911.2
2015-Jun-29 19:28N 37°26' E 010°28'2210.7
2015-Jun-29 17:26N 37°04' E 010°30'1011.3
2015-Jun-29 16:32N 36°54' E 010°27'9 8.6
2015-Jun-29 15:29N 36°48' E 010°18'7 0.2
2015-Jun-27 19:09N 36°49' E 010°27'0 0.0
2015-Jun-27 18:33N 36°49' E 010°27'0 0.0
2015-Jun-25 15:32N 36°49' E 010°27'0 0.0
2015-Jun-25 14:31N 36°49' E 010°27'10 2.5
2015-Jun-25 10:33N 36°59' E 010°29'20 9.2
2015-Jun-25 08:21N 37°19' E 010°33'10410.6
2015-Jun-24 22:30N 37°15' E 008°22'25711.5
2015-Jun-24 00:17N 37°02' E 003°01'912.3
2015-Jun-23 23:33N 36°59' E 002°50'4912.3
2015-Jun-23 19:33N 36°47' E 001°50'612.2
2015-Jun-23 19:05N 36°47' E 001°43'23 0.4
2015-Jun-21 15:16N 36°50' E 002°12'9 9.4
2015-Jun-21 14:20N 36°53' E 002°22'7 9.3
2015-Jun-21 13:33N 36°55' E 002°31'74 9.2
2015-Jun-21 05:33N 37°15' E 004°00'  
Track history (hours):
 
Tides and Currents Weather Stations Pressure Air Temp Water Temp Dewpoint Dewpoint Depression Visibility Wind Speed Wind Dir Waves Ship Positions

Gaschem Jade

Last reported at 2015-Jun-29 20:16 UTC. Time now 2015-Jun-30 08:18 UTC.
Position N 37°32' E 010°20'.

Length 113.2 m; beam 15.9 m; draft 6.1 m.

Type: Ship. MMSI: 636090168.

Date/timePositionNaut miles runAvg speedWind from/ knotsBaromVisibWave heightAir tempDewpointWater temp
2015-Jun-29 20:16N 37°32' E 010°20'911.2
2015-Jun-29 19:28N 37°26' E 010°28'2210.7
2015-Jun-29 17:26N 37°04' E 010°30'1011.3
2015-Jun-29 16:32N 36°54' E 010°27'9 8.6
2015-Jun-29 15:29N 36°48' E 010°18'7 0.2
2015-Jun-27 19:09N 36°49' E 010°27'0 0.0
2015-Jun-27 18:33N 36°49' E 010°27'0 0.0
2015-Jun-25 15:32N 36°49' E 010°27'0 0.0
2015-Jun-25 14:31N 36°49' E 010°27'10 2.5
2015-Jun-25 10:33N 36°59' E 010°29'20 9.2
2015-Jun-25 08:21N 37°19' E 010°33'10410.6
2015-Jun-24 22:30N 37°15' E 008°22'25711.5
2015-Jun-24 00:17N 37°02' E 003°01'912.3
2015-Jun-23 23:33N 36°59' E 002°50'4912.3
2015-Jun-23 19:33N 36°47' E 001°50'612.2
2015-Jun-23 19:05N 36°47' E 001°43'23 0.4
2015-Jun-21 15:16N 36°50' E 002°12'9 9.4
2015-Jun-21 14:20N 36°53' E 002°22'7 9.3
2015-Jun-21 13:33N 36°55' E 002°31'74 9.2
2015-Jun-21 05:33N 37°15' E 004°00'  

Dump ship's entire track history